Oakland, CA (94619)

1:14 PM PDT on September 02, 2015 (GMT -0700)
Upper Laurel | | Change Station
CLOSE
Current Station
Personal Weather Station
Location: Oakland, CA
Elevation: 276 ft
Nearby Weather Stations

Elev 276 ft 37.79 °N, 122.19 °W | Updated 25 seconds ago

Partly Cloudy
Partly Cloudy
74.5 °F
Feels Like 77 °F
N
7.2
Wind Variable Wind from SW
Gusts 11.0 mph

Today
High -- | Low -- °F
--% Chance of Precip.
Yesterday
High -- | Low -- °F
Precip. -- in
6:39 AM 7:36 PM
Waning Gibbous, 77% visible
Pressure 29.96 in
Visibility 10.0 miles
Clouds Few 1000 ft
Heat Index 77 °F
Dew Point 44 °F
Humidity 33%
Rainfall Not available.
Snow Depth Not available.
UV 9 out of 12
Pollen 7.10 out of 12
Air Quality Not available.
Flu Activity Not available.
METAR KOAK 021953Z 26012KT 10SM FEW010 21/12 A2995 RMK AO2 SLP143 T02110122
Pressure 29.96 in
Visibility 10.0 miles
Clouds Few 1000 ft
Heat Index 77 °F
Dew Point 44 °F
Humidity 33%
Rainfall Not available.
Snow Depth Not available.
UV 9 out of 12
Pollen 7.10 out of 12
Air Quality Not available.
Flu Activity Not available.
METAR KOAK 021953Z 26012KT 10SM FEW010 21/12 A2995 RMK AO2 SLP143 T02110122

10-Day Weather Forecast

×

Almanac

Astronomy

Sep. 02, 2015 Rise Set
Actual Time
Civil Twilight
Nautical Twilight
Astronomical Twilight
Moon
Length of Visible Light
Length of Day
Tomorrow will be .
, % of the Moon is Illuminated

Today's Extremes

State Highs State Lows

Community

WunderPhotos

Upload Photos

1,851,803 photos uploaded!

WunderBlogs® & News

Nearby

Air Quality

  Air Quality AQ Index Pollutant
Not available.

Snow Depth

Station Depth Elevation

Earthquake Activity

City Distance Mag. Time & Date
Minimum magnitude displayed is 2.5.

Coastal Water Temperatures

Place Temperature

Stations

Nearby Weather Stations

Station Location Temp. Windchill Dew Point Humidity Wind Precip. Elev Updated Type